sensor_id;sensor_type;location;lat;lon;timestamp;pressure;altitude;pressure_sealevel;temperature;humidity
34931;BME280;21134;49.646;8.560;2023-04-03T00:02:17;101490.00;;;3.28;79.98
34931;BME280;21134;49.646;8.560;2023-04-03T00:04:43;101497.41;;;3.23;80.39
34931;BME280;21134;49.646;8.560;2023-04-03T00:07:12;101491.88;;;3.13;81.02
34931;BME280;21134;49.646;8.560;2023-04-03T00:09:39;101491.88;;;2.95;81.01
34931;BME280;21134;49.646;8.560;2023-04-03T00:12:06;101490.31;;;2.79;81.74
34931;BME280;21134;49.646;8.560;2023-04-03T00:14:32;101494.13;;;2.71;82.02
34931;BME280;21134;49.646;8.560;2023-04-03T00:16:59;101497.03;;;2.61;83.46
34931;BME280;21134;49.646;8.560;2023-04-03T00:19:25;101501.00;;;2.55;84.00
34931;BME280;21134;49.646;8.560;2023-04-03T00:21:52;101498.38;;;2.54;85.00
34931;BME280;21134;49.646;8.560;2023-04-03T00:24:20;101503.38;;;2.52;85.05
34931;BME280;21134;49.646;8.560;2023-04-03T00:26:47;101501.28;;;2.44;85.72
34931;BME280;21134;49.646;8.560;2023-04-03T00:29:13;101496.63;;;2.35;86.39
34931;BME280;21134;49.646;8.560;2023-04-03T00:31:40;101499.66;;;2.28;87.82
34931;BME280;21134;49.646;8.560;2023-04-03T00:34:06;101502.75;;;2.22;87.93
34931;BME280;21134;49.646;8.560;2023-04-03T00:36:33;101502.75;;;2.22;88.29
34931;BME280;21134;49.646;8.560;2023-04-03T00:38:59;101504.19;;;2.17;88.43
34931;BME280;21134;49.646;8.560;2023-04-03T00:41:27;101508.34;;;2.17;88.72
34931;BME280;21134;49.646;8.560;2023-04-03T00:43:54;101506.72;;;2.17;88.46
34931;BME280;21134;49.646;8.560;2023-04-03T00:46:20;101510.81;;;2.15;88.91
34931;BME280;21134;49.646;8.560;2023-04-03T00:48:48;101508.84;;;2.09;88.99
34931;BME280;21134;49.646;8.560;2023-04-03T00:51:17;101522.03;;;2.04;89.08
34931;BME280;21134;49.646;8.560;2023-04-03T00:53:47;101514.59;;;2.07;88.28
34931;BME280;21134;49.646;8.560;2023-04-03T00:56:18;101512.97;;;2.07;88.70
34931;BME280;21134;49.646;8.560;2023-04-03T00:58:50;101517.06;;;2.05;89.21
34931;BME280;21134;49.646;8.560;2023-04-03T01:01:21;101509.09;;;1.98;89.74
34931;BME280;21134;49.646;8.560;2023-04-03T01:03:49;101508.81;;;1.92;89.81
34931;BME280;21134;49.646;8.560;2023-04-03T01:06:17;101506.19;;;1.90;90.68
34931;BME280;21134;49.646;8.560;2023-04-03T01:08:48;101510.47;;;1.75;91.10
34931;BME280;21134;49.646;8.560;2023-04-03T01:11:16;101509.44;;;1.71;91.66
34931;BME280;21134;49.646;8.560;2023-04-03T01:13:42;101506.75;;;1.68;92.58
34931;BME280;21134;49.646;8.560;2023-04-03T01:16:10;101503.91;;;1.62;93.23
34931;BME280;21134;49.646;8.560;2023-04-03T01:18:39;101501.97;;;1.56;93.47
34931;BME280;21134;49.646;8.560;2023-04-03T01:21:37;101504.34;;;1.53;93.63
34931;BME280;21134;49.646;8.560;2023-04-03T01:24:22;101499.91;;;1.49;93.93
34931;BME280;21134;49.646;8.560;2023-04-03T01:26:53;101499.28;;;1.53;93.91
34931;BME280;21134;49.646;8.560;2023-04-03T01:29:20;101501.66;;;1.50;93.91
34931;BME280;21134;49.646;8.560;2023-04-03T01:31:50;101505.63;;;1.47;94.33
34931;BME280;21134;49.646;8.560;2023-04-03T01:34:17;101504.50;;;1.56;93.45
34931;BME280;21134;49.646;8.560;2023-04-03T01:36:44;101503.16;;;1.63;93.37
34931;BME280;21134;49.646;8.560;2023-04-03T01:39:11;101507.78;;;1.55;93.29
34931;BME280;21134;49.646;8.560;2023-04-03T01:41:38;101506.13;;;1.56;93.30
34931;BME280;21134;49.646;8.560;2023-04-03T01:44:04;101510.56;;;1.60;93.07
34931;BME280;21134;49.646;8.560;2023-04-03T01:46:31;101509.13;;;1.49;93.30
34931;BME280;21134;49.646;8.560;2023-04-03T01:48:59;101506.38;;;1.44;93.82
34931;BME280;21134;49.646;8.560;2023-04-03T01:51:25;101519.69;;;1.42;94.01
34931;BME280;21134;49.646;8.560;2023-04-03T01:53:52;101517.56;;;1.49;93.00
34931;BME280;21134;49.646;8.560;2023-04-03T01:56:18;101513.94;;;1.44;93.51
34931;BME280;21134;49.646;8.560;2023-04-03T01:58:45;101508.16;;;1.47;93.51
34931;BME280;21134;49.646;8.560;2023-04-03T02:01:11;101518.13;;;1.44;93.49
34931;BME280;21134;49.646;8.560;2023-04-03T02:03:38;101518.72;;;1.39;94.25
34931;BME280;21134;49.646;8.560;2023-04-03T02:06:06;101517.31;;;1.45;93.72
34931;BME280;21134;49.646;8.560;2023-04-03T02:08:32;101518.56;;;1.53;93.00
34931;BME280;21134;49.646;8.560;2023-04-03T02:10:59;101516.84;;;1.52;93.09
34931;BME280;21134;49.646;8.560;2023-04-03T02:13:26;101523.47;;;1.50;92.80
34931;BME280;21134;49.646;8.560;2023-04-03T02:15:52;101519.38;;;1.52;93.47
34931;BME280;21134;49.646;8.560;2023-04-03T02:18:19;101518.34;;;1.48;92.83
34931;BME280;21134;49.646;8.560;2023-04-03T02:20:46;101516.31;;;1.41;94.28
34931;BME280;21134;49.646;8.560;2023-04-03T02:23:14;101515.88;;;1.33;94.11
34931;BME280;21134;49.646;8.560;2023-04-03T02:25:41;101509.97;;;1.33;94.07
34931;BME280;21134;49.646;8.560;2023-04-03T02:28:07;101513.94;;;1.28;94.57
34931;BME280;21134;49.646;8.560;2023-04-03T02:30:34;101509.41;;;1.22;95.08
34931;BME280;21134;49.646;8.560;2023-04-03T02:33:00;101518.00;;;1.26;95.27
34931;BME280;21134;49.646;8.560;2023-04-03T02:35:27;101505.94;;;1.20;95.07
34931;BME280;21134;49.646;8.560;2023-04-03T02:37:53;101514.19;;;1.17;95.36
34931;BME280;21134;49.646;8.560;2023-04-03T02:40:21;101508.13;;;1.14;95.43
34931;BME280;21134;49.646;8.560;2023-04-03T02:42:47;101516.16;;;1.07;95.91
34931;BME280;21134;49.646;8.560;2023-04-03T02:45:14;101513.41;;;1.02;96.19
34931;BME280;21134;49.646;8.560;2023-04-03T02:47:40;101517.47;;;1.00;96.22
34931;BME280;21134;49.646;8.560;2023-04-03T02:50:08;101518.28;;;0.99;96.12
34931;BME280;21134;49.646;8.560;2023-04-03T02:52:34;101507.56;;;1.03;95.79
34931;BME280;21134;49.646;8.560;2023-04-03T02:55:00;101506.59;;;1.01;95.51
34931;BME280;21134;49.646;8.560;2023-04-03T02:57:28;101503.38;;;1.04;95.22
34931;BME280;21134;49.646;8.560;2023-04-03T02:59:55;101507.72;;;1.06;95.40
34931;BME280;21134;49.646;8.560;2023-04-03T03:02:21;101504.25;;;1.04;95.44
34931;BME280;21134;49.646;8.560;2023-04-03T03:04:48;101504.25;;;1.04;95.72
34931;BME280;21134;49.646;8.560;2023-04-03T03:07:14;101495.28;;;1.09;96.18
34931;BME280;21134;49.646;8.560;2023-04-03T03:09:41;101504.50;;;1.09;95.42
34931;BME280;21134;49.646;8.560;2023-04-03T03:12:07;101497.19;;;1.13;94.98
34931;BME280;21134;49.646;8.560;2023-04-03T03:14:35;101499.69;;;1.13;94.86
34931;BME280;21134;49.646;8.560;2023-04-03T03:17:01;101498.16;;;1.15;94.90
34931;BME280;21134;49.646;8.560;2023-04-03T03:19:28;101500.50;;;1.12;94.76
34931;BME280;21134;49.646;8.560;2023-04-03T03:21:54;101499.69;;;1.13;95.18
34931;BME280;21134;49.646;8.560;2023-04-03T03:24:22;101503.03;;;1.12;94.72
34931;BME280;21134;49.646;8.560;2023-04-03T03:26:48;101506.72;;;1.19;94.53
34931;BME280;21134;49.646;8.560;2023-04-03T03:29:15;101497.41;;;1.18;94.43
34931;BME280;21134;49.646;8.560;2023-04-03T03:31:43;101503.88;;;1.13;95.00
34931;BME280;21134;49.646;8.560;2023-04-03T03:34:09;101509.00;;;1.14;94.65
34931;BME280;21134;49.646;8.560;2023-04-03T03:36:36;101505.78;;;1.17;94.80
34931;BME280;21134;49.646;8.560;2023-04-03T03:39:02;101505.94;;;1.20;95.06
34931;BME280;21134;49.646;8.560;2023-04-03T03:41:29;101514.66;;;1.10;95.07
34931;BME280;21134;49.646;8.560;2023-04-03T03:43:56;101502.44;;;1.02;95.77
34931;BME280;21134;49.646;8.560;2023-04-03T03:46:23;101506.66;;;0.86;96.77
34931;BME280;21134;49.646;8.560;2023-04-03T03:48:51;101509.59;;;0.79;97.09
34931;BME280;21134;49.646;8.560;2023-04-03T03:51:17;101513.53;;;0.74;97.87
34931;BME280;21134;49.646;8.560;2023-04-03T03:53:44;101515.50;;;0.80;97.63
34931;BME280;21134;49.646;8.560;2023-04-03T03:56:10;101511.38;;;0.80;97.29
34931;BME280;21134;49.646;8.560;2023-04-03T03:58:37;101514.47;;;0.76;97.27
34931;BME280;21134;49.646;8.560;2023-04-03T04:01:04;101512.56;;;0.72;97.38
34931;BME280;21134;49.646;8.560;2023-04-03T04:03:32;101509.88;;;0.69;97.45
34931;BME280;21134;49.646;8.560;2023-04-03T04:06:00;101513.88;;;0.65;97.83
34931;BME280;21134;49.646;8.560;2023-04-03T04:08:26;101517.03;;;0.61;98.17
34931;BME280;21134;49.646;8.560;2023-04-03T04:10:53;101516.06;;;0.59;98.26
34931;BME280;21134;49.646;8.560;2023-04-03T04:13:19;101511.81;;;0.58;98.67
34931;BME280;21134;49.646;8.560;2023-04-03T04:15:46;101518.59;;;0.59;98.72
34931;BME280;21134;49.646;8.560;2023-04-03T04:18:12;101511.19;;;0.62;98.14
34931;BME280;21134;49.646;8.560;2023-04-03T04:20:39;101508.50;;;0.59;97.50
34931;BME280;21134;49.646;8.560;2023-04-03T04:23:06;101508.84;;;0.51;97.65
34931;BME280;21134;49.646;8.560;2023-04-03T04:25:33;101510.50;;;0.50;97.98
34931;BME280;21134;49.646;8.560;2023-04-03T04:27:59;101509.91;;;0.54;98.26
34931;BME280;21134;49.646;8.560;2023-04-03T04:30:26;101509.31;;;0.58;98.15
34931;BME280;21134;49.646;8.560;2023-04-03T04:32:52;101504.97;;;0.56;97.93
34931;BME280;21134;49.646;8.560;2023-04-03T04:35:19;101504.00;;;0.54;97.95
34931;BME280;21134;49.646;8.560;2023-04-03T04:37:45;101507.13;;;0.50;98.51
34931;BME280;21134;49.646;8.560;2023-04-03T04:40:14;101510.97;;;0.58;98.31
34931;BME280;21134;49.646;8.560;2023-04-03T04:42:40;101507.66;;;0.59;98.73
34931;BME280;21134;49.646;8.560;2023-04-03T04:45:07;101510.69;;;0.68;98.48
34931;BME280;21134;49.646;8.560;2023-04-03T04:47:34;101515.25;;;0.75;98.02
34931;BME280;21134;49.646;8.560;2023-04-03T04:50:00;101511.38;;;0.80;97.60
34931;BME280;21134;49.646;8.560;2023-04-03T04:52:27;101509.88;;;0.84;97.23
34931;BME280;21134;49.646;8.560;2023-04-03T04:54:53;101508.63;;;0.92;96.99
34931;BME280;21134;49.646;8.560;2023-04-03T04:57:21;101512.97;;;0.95;96.99
34931;BME280;21134;49.646;8.560;2023-04-03T04:59:47;101511.47;;;0.98;96.47
34931;BME280;21134;49.646;8.560;2023-04-03T05:02:14;101520.66;;;1.12;95.87
34931;BME280;21134;49.646;8.560;2023-04-03T05:04:41;101517.72;;;1.05;96.25
34931;BME280;21134;49.646;8.560;2023-04-03T05:07:07;101516.84;;;1.04;96.41
34931;BME280;21134;49.646;8.560;2023-04-03T05:09:34;101521.88;;;1.04;96.23
34931;BME280;21134;49.646;8.560;2023-04-03T05:12:00;101520.78;;;0.99;96.51
34931;BME280;21134;49.646;8.560;2023-04-03T05:14:29;101518.56;;;1.05;96.58
34931;BME280;21134;49.646;8.560;2023-04-03T05:16:56;101527.72;;;1.03;96.47
34931;BME280;21134;49.646;8.560;2023-04-03T05:19:23;101531.09;;;1.04;96.82
34931;BME280;21134;49.646;8.560;2023-04-03T05:21:49;101528.59;;;1.04;97.04
34931;BME280;21134;49.646;8.560;2023-04-03T05:24:16;101532.25;;;1.09;96.75
34931;BME280;21134;49.646;8.560;2023-04-03T05:26:43;101537.34;;;1.10;96.61
34931;BME280;21134;49.646;8.560;2023-04-03T05:29:10;101535.16;;;1.16;96.68
34931;BME280;21134;49.646;8.560;2023-04-03T05:31:37;101537.91;;;1.21;96.68
34931;BME280;21134;49.646;8.560;2023-04-03T05:34:04;101538.97;;;1.25;96.53
34931;BME280;21134;49.646;8.560;2023-04-03T05:36:31;101537.81;;;1.34;95.96
34931;BME280;21134;49.646;8.560;2023-04-03T05:38:57;101542.69;;;1.31;96.08
34931;BME280;21134;49.646;8.560;2023-04-03T05:41:24;101542.28;;;1.40;95.57
34931;BME280;21134;49.646;8.560;2023-04-03T05:43:50;101538.44;;;1.47;95.49
34931;BME280;21134;49.646;8.560;2023-04-03T05:46:18;101545.22;;;1.48;95.26
34931;BME280;21134;49.646;8.560;2023-04-03T05:48:47;101547.13;;;1.52;95.78
34931;BME280;21134;49.646;8.560;2023-04-03T05:51:15;101547.28;;;1.55;95.77
34931;BME280;21134;49.646;8.560;2023-04-03T05:53:43;101548.41;;;1.60;95.98
34931;BME280;21134;49.646;8.560;2023-04-03T05:56:10;101555.38;;;1.66;95.49
34931;BME280;21134;49.646;8.560;2023-04-03T05:58:36;101549.66;;;1.68;95.68
34931;BME280;21134;49.646;8.560;2023-04-03T06:01:04;101551.16;;;1.81;95.35
34931;BME280;21134;49.646;8.560;2023-04-03T06:03:30;101554.25;;;1.92;94.68
34931;BME280;21134;49.646;8.560;2023-04-03T06:05:59;101562.03;;;1.96;94.62
34931;BME280;21134;49.646;8.560;2023-04-03T06:08:25;101554.78;;;2.02;94.24
34931;BME280;21134;49.646;8.560;2023-04-03T06:10:52;101563.91;;;2.17;93.71
34931;BME280;21134;49.646;8.560;2023-04-03T06:13:18;101564.78;;;2.17;93.22
34931;BME280;21134;49.646;8.560;2023-04-03T06:15:45;101563.81;;;2.31;92.68
34931;BME280;21134;49.646;8.560;2023-04-03T06:18:12;101563.47;;;2.42;92.76
34931;BME280;21134;49.646;8.560;2023-04-03T06:20:38;101560.44;;;2.49;91.91
34931;BME280;21134;49.646;8.560;2023-04-03T06:23:06;101567.03;;;2.63;91.82
34931;BME280;21134;49.646;8.560;2023-04-03T06:25:33;101565.81;;;2.73;91.29
34931;BME280;21134;49.646;8.560;2023-04-03T06:27:59;101559.91;;;2.90;90.59
34931;BME280;21134;49.646;8.560;2023-04-03T06:30:26;101570.03;;;3.08;89.91
34931;BME280;21134;49.646;8.560;2023-04-03T06:32:52;101573.41;;;3.09;89.25
34931;BME280;21134;49.646;8.560;2023-04-03T06:35:19;101572.84;;;3.14;89.43
34931;BME280;21134;49.646;8.560;2023-04-03T06:37:46;101578.94;;;3.37;88.74
34931;BME280;21134;49.646;8.560;2023-04-03T06:40:19;101579.03;;;3.39;87.91
34931;BME280;21134;49.646;8.560;2023-04-03T06:42:46;101582.19;;;3.53;87.38
34931;BME280;21134;49.646;8.560;2023-04-03T06:45:13;101576.53;;;3.58;86.94
34931;BME280;21134;49.646;8.560;2023-04-03T06:47:39;101581.47;;;3.55;87.61
34931;BME280;21134;49.646;8.560;2023-04-03T06:50:06;101588.94;;;3.71;87.57
34931;BME280;21134;49.646;8.560;2023-04-03T06:52:34;101590.34;;;4.04;85.97
34931;BME280;21134;49.646;8.560;2023-04-03T06:55:00;101584.03;;;4.54;83.47
34931;BME280;21134;49.646;8.560;2023-04-03T06:57:29;101591.13;;;4.83;82.47
34931;BME280;21134;49.646;8.560;2023-04-03T06:59:55;101584.16;;;5.21;79.43
34931;BME280;21134;49.646;8.560;2023-04-03T07:02:22;101590.16;;;5.23;79.49
34931;BME280;21134;49.646;8.560;2023-04-03T07:04:49;101591.19;;;5.28;79.38
34931;BME280;21134;49.646;8.560;2023-04-03T07:07:15;101596.78;;;5.42;78.08
34931;BME280;21134;49.646;8.560;2023-04-03T07:09:42;101596.78;;;5.42;77.29
34931;BME280;21134;49.646;8.560;2023-04-03T07:12:09;101601.84;;;5.65;76.10
34931;BME280;21134;49.646;8.560;2023-04-03T07:14:37;101598.00;;;5.74;75.40
34931;BME280;21134;49.646;8.560;2023-04-03T07:17:04;101601.78;;;5.86;74.41
34931;BME280;21134;49.646;8.560;2023-04-03T07:19:30;101602.19;;;5.74;74.80
34931;BME280;21134;49.646;8.560;2023-04-03T07:21:57;101604.28;;;5.84;74.13
34931;BME280;21134;49.646;8.560;2023-04-03T07:24:23;101613.44;;;6.03;72.94
34931;BME280;21134;49.646;8.560;2023-04-03T07:26:50;101618.47;;;6.01;72.06
34931;BME280;21134;49.646;8.560;2023-04-03T07:29:17;101611.31;;;5.69;72.45
34931;BME280;21134;49.646;8.560;2023-04-03T07:31:46;101618.09;;;5.92;73.51
34931;BME280;21134;49.646;8.560;2023-04-03T07:34:13;101623.94;;;5.90;71.25
34931;BME280;21134;49.646;8.560;2023-04-03T07:36:39;101623.31;;;5.95;70.29
34931;BME280;21134;49.646;8.560;2023-04-03T07:39:06;101621.75;;;5.99;70.18
34931;BME280;21134;49.646;8.560;2023-04-03T07:41:33;101622.91;;;6.07;71.36
34931;BME280;21134;49.646;8.560;2023-04-03T07:44:00;101624.09;;;6.17;69.25
34931;BME280;21134;49.646;8.560;2023-04-03T07:46:26;101624.63;;;6.08;68.31
34931;BME280;21134;49.646;8.560;2023-04-03T07:48:54;101625.97;;;5.98;69.17
34931;BME280;21134;49.646;8.560;2023-04-03T07:51:20;101626.03;;;6.00;67.94
34931;BME280;21134;49.646;8.560;2023-04-03T07:53:47;101620.16;;;6.01;69.01
34931;BME280;21134;49.646;8.560;2023-04-03T07:56:13;101630.34;;;6.02;68.33
34931;BME280;21134;49.646;8.560;2023-04-03T07:58:40;101632.91;;;6.26;67.65
34931;BME280;21134;49.646;8.560;2023-04-03T08:01:06;101631.78;;;6.44;67.48
34931;BME280;21134;49.646;8.560;2023-04-03T08:03:33;101631.34;;;6.56;66.59
34931;BME280;21134;49.646;8.560;2023-04-03T08:06:03;101635.72;;;6.60;65.47
34931;BME280;21134;49.646;8.560;2023-04-03T08:08:30;101636.00;;;6.67;67.17
34931;BME280;21134;49.646;8.560;2023-04-03T08:10:59;101640.00;;;6.86;65.17
34931;BME280;21134;49.646;8.560;2023-04-03T08:13:27;101634.44;;;6.98;63.14
34931;BME280;21134;49.646;8.560;2023-04-03T08:15:54;101638.16;;;6.82;60.50
34931;BME280;21134;49.646;8.560;2023-04-03T08:18:22;101642.25;;;6.77;61.34
34931;BME280;21134;49.646;8.560;2023-04-03T08:20:49;101639.81;;;6.55;60.01
34931;BME280;21134;49.646;8.560;2023-04-03T08:23:18;101632.47;;;6.38;60.25
34931;BME280;21134;49.646;8.560;2023-04-03T08:25:45;101640.28;;;6.44;60.45
34931;BME280;21134;49.646;8.560;2023-04-03T08:28:12;101642.97;;;6.23;59.70
34931;BME280;21134;49.646;8.560;2023-04-03T08:30:39;101647.38;;;6.05;60.27
34931;BME280;21134;49.646;8.560;2023-04-03T08:33:06;101636.78;;;6.41;59.63
34931;BME280;21134;49.646;8.560;2023-04-03T08:35:33;101635.69;;;6.84;59.84
34931;BME280;21134;49.646;8.560;2023-04-03T08:38:00;101635.78;;;6.61;58.53
34931;BME280;21134;49.646;8.560;2023-04-03T08:40:28;101640.47;;;6.74;57.38
34931;BME280;21134;49.646;8.560;2023-04-03T08:43:04;101636.44;;;7.08;56.77
34931;BME280;21134;49.646;8.560;2023-04-03T08:45:42;101637.34;;;7.09;54.61
34931;BME280;21134;49.646;8.560;2023-04-03T08:48:14;101630.25;;;7.54;54.35
34931;BME280;21134;49.646;8.560;2023-04-03T08:50:43;101642.78;;;7.48;53.77
34931;BME280;21134;49.646;8.560;2023-04-03T08:53:14;101632.41;;;7.42;55.41
34931;BME280;21134;49.646;8.560;2023-04-03T08:55:45;101631.75;;;7.76;54.80
34931;BME280;21134;49.646;8.560;2023-04-03T08:58:15;101637.84;;;8.11;52.72
34931;BME280;21134;49.646;8.560;2023-04-03T09:00:45;101630.28;;;8.46;51.55
34931;BME280;21134;49.646;8.560;2023-04-03T09:03:13;101632.19;;;8.88;49.87
34931;BME280;21134;49.646;8.560;2023-04-03T09:05:43;101630.25;;;9.14;50.37
34931;BME280;21134;49.646;8.560;2023-04-03T09:08:18;101622.97;;;9.31;48.84
34931;BME280;21134;49.646;8.560;2023-04-03T09:10:49;101633.41;;;9.40;50.27
34931;BME280;21134;49.646;8.560;2023-04-03T09:13:24;101631.69;;;9.41;47.47
34931;BME280;21134;49.646;8.560;2023-04-03T09:15:54;101619.13;;;9.50;48.08
34931;BME280;21134;49.646;8.560;2023-04-03T09:18:26;101624.22;;;9.48;48.59
34931;BME280;21134;49.646;8.560;2023-04-03T09:21:00;101630.97;;;9.08;49.18
34931;BME280;21134;49.646;8.560;2023-04-03T09:23:32;101636.16;;;8.77;50.81
34931;BME280;21134;49.646;8.560;2023-04-03T09:26:05;101639.78;;;8.85;50.17
34931;BME280;21134;49.646;8.560;2023-04-03T09:28:38;101635.59;;;8.54;50.66
34931;BME280;21134;49.646;8.560;2023-04-03T09:31:14;101628.00;;;8.55;52.46
34931;BME280;21134;49.646;8.560;2023-04-03T09:33:43;101626.94;;;9.18;50.18
34931;BME280;21134;49.646;8.560;2023-04-03T09:36:10;101622.97;;;9.31;49.86
34931;BME280;21134;49.646;8.560;2023-04-03T09:38:37;101622.91;;;8.92;50.38
34931;BME280;21134;49.646;8.560;2023-04-03T09:41:07;101620.25;;;8.52;49.28
34931;BME280;21134;49.646;8.560;2023-04-03T09:43:35;101624.63;;;8.58;50.54
34931;BME280;21134;49.646;8.560;2023-04-03T09:46:24;101620.88;;;8.44;50.09
34931;BME280;21134;49.646;8.560;2023-04-03T09:48:56;101617.56;;;8.16;50.11
34931;BME280;21134;49.646;8.560;2023-04-03T09:51:25;101614.22;;;8.19;50.00
34931;BME280;21134;49.646;8.560;2023-04-03T09:53:52;101616.53;;;8.40;50.75
34931;BME280;21134;49.646;8.560;2023-04-03T09:56:23;101617.06;;;8.61;48.73
34931;BME280;21134;49.646;8.560;2023-04-03T09:59:01;101621.59;;;9.07;48.93
34931;BME280;21134;49.646;8.560;2023-04-03T10:01:33;101620.28;;;8.89;47.85
34931;BME280;21134;49.646;8.560;2023-04-03T10:04:05;101615.69;;;9.10;48.77
34931;BME280;21134;49.646;8.560;2023-04-03T10:06:33;101621.81;;;9.17;48.04
34931;BME280;21134;49.646;8.560;2023-04-03T10:09:10;101613.25;;;8.78;48.35
34931;BME280;21134;49.646;8.560;2023-04-03T10:11:58;101605.75;;;8.86;48.04
34931;BME280;21134;49.646;8.560;2023-04-03T10:14:25;101608.25;;;8.83;48.03
34931;BME280;21134;49.646;8.560;2023-04-03T10:16:57;101607.84;;;9.02;48.27
34931;BME280;21134;49.646;8.560;2023-04-03T10:19:34;101597.50;;;9.34;48.35
34931;BME280;21134;49.646;8.560;2023-04-03T10:22:06;101591.59;;;9.37;47.16
34931;BME280;21134;49.646;8.560;2023-04-03T10:24:43;101592.53;;;9.83;46.70
34931;BME280;21134;49.646;8.560;2023-04-03T10:27:17;101592.84;;;9.98;44.38
34931;BME280;21134;49.646;8.560;2023-04-03T10:29:50;101600.34;;;10.31;44.76
34931;BME280;21134;49.646;8.560;2023-04-03T10:32:30;101604.44;;;10.24;43.58
34931;BME280;21134;49.646;8.560;2023-04-03T10:35:08;101591.91;;;10.38;43.67
34931;BME280;21134;49.646;8.560;2023-04-03T10:37:50;101597.22;;;10.49;44.03
34931;BME280;21134;49.646;8.560;2023-04-03T10:40:27;101603.50;;;10.68;44.73
34931;BME280;21134;49.646;8.560;2023-04-03T10:43:02;101587.34;;;10.69;44.21
34931;BME280;21134;49.646;8.560;2023-04-03T10:45:45;101601.00;;;10.69;42.51
34931;BME280;21134;49.646;8.560;2023-04-03T10:48:17;101588.25;;;10.74;42.38
34931;BME280;21134;49.646;8.560;2023-04-03T10:50:58;101598.75;;;10.89;42.16
34931;BME280;21134;49.646;8.560;2023-04-03T10:53:31;101591.47;;;11.17;41.12
34931;BME280;21134;49.646;8.560;2023-04-03T10:56:03;101592.88;;;11.59;43.04
34931;BME280;21134;49.646;8.560;2023-04-03T10:58:39;101593.16;;;11.83;40.39
34931;BME280;21134;49.646;8.560;2023-04-03T11:01:09;101589.69;;;11.11;42.02
34931;BME280;21134;49.646;8.560;2023-04-03T11:03:40;101594.31;;;10.79;42.08
34931;BME280;21134;49.646;8.560;2023-04-03T11:06:10;101585.53;;;10.63;41.61
34931;BME280;21134;49.646;8.560;2023-04-03T11:08:42;101588.78;;;10.53;42.48
34931;BME280;21134;49.646;8.560;2023-04-03T11:11:13;101587.28;;;10.19;43.64
34931;BME280;21134;49.646;8.560;2023-04-03T11:13:46;101587.53;;;9.87;43.34
34931;BME280;21134;49.646;8.560;2023-04-03T11:16:22;101579.69;;;9.78;43.43
34931;BME280;21134;49.646;8.560;2023-04-03T11:18:52;101580.72;;;10.32;43.67
34931;BME280;21134;49.646;8.560;2023-04-03T11:21:25;101574.56;;;10.22;44.38
34931;BME280;21134;49.646;8.560;2023-04-03T11:23:57;101579.34;;;10.52;43.73
34931;BME280;21134;49.646;8.560;2023-04-03T11:26:27;101581.03;;;10.50;43.04
34931;BME280;21134;49.646;8.560;2023-04-03T11:29:01;101588.56;;;10.42;43.24
34931;BME280;21134;49.646;8.560;2023-04-03T11:31:38;101577.38;;;10.36;42.70
34931;BME280;21134;49.646;8.560;2023-04-03T11:34:21;101576.84;;;10.54;42.89
34931;BME280;21134;49.646;8.560;2023-04-03T11:36:53;101577.94;;;10.69;42.59
34931;BME280;21134;49.646;8.560;2023-04-03T11:39:24;101575.44;;;10.73;42.26
34931;BME280;21134;49.646;8.560;2023-04-03T11:41:52;101573.88;;;10.82;42.51
34931;BME280;21134;49.646;8.560;2023-04-03T11:44:34;101562.75;;;10.79;43.23
34931;BME280;21134;49.646;8.560;2023-04-03T11:47:03;101569.41;;;11.27;42.97
34931;BME280;21134;49.646;8.560;2023-04-03T11:49:58;101571.78;;;11.81;40.99
34931;BME280;21134;49.646;8.560;2023-04-03T11:53:00;101567.56;;;11.20;41.26
34931;BME280;21134;49.646;8.560;2023-04-03T11:55:43;101567.78;;;11.35;41.76
34931;BME280;21134;49.646;8.560;2023-04-03T11:58:13;101554.81;;;11.23;42.69
34931;BME280;21134;49.646;8.560;2023-04-03T12:00:59;101548.50;;;11.63;42.60
34931;BME280;21134;49.646;8.560;2023-04-03T12:03:32;101547.91;;;11.84;40.61
34931;BME280;21134;49.646;8.560;2023-04-03T12:09:25;101536.66;;;12.61;40.21
34931;BME280;21134;49.646;8.560;2023-04-03T12:11:52;101533.34;;;12.77;37.90
34931;BME280;21134;49.646;8.560;2023-04-03T12:14:22;101544.75;;;12.09;39.87
34931;BME280;21134;49.646;8.560;2023-04-03T12:16:52;101547.84;;;11.82;39.29
34931;BME280;21134;49.646;8.560;2023-04-03T12:19:36;101541.78;;;11.06;41.17
34931;BME280;21134;49.646;8.560;2023-04-03T12:22:14;101542.47;;;10.38;42.06
34931;BME280;21134;49.646;8.560;2023-04-03T12:24:42;101542.22;;;10.25;43.24
34931;BME280;21134;49.646;8.560;2023-04-03T12:27:20;101540.19;;;10.08;43.57
34931;BME280;21134;49.646;8.560;2023-04-03T12:29:52;101537.53;;;10.50;43.43
34931;BME280;21134;49.646;8.560;2023-04-03T12:32:32;101534.81;;;10.97;42.83
34931;BME280;21134;49.646;8.560;2023-04-03T12:35:10;101528.09;;;11.72;40.31
34931;BME280;21134;49.646;8.560;2023-04-03T12:38:10;101527.94;;;12.42;38.61
34931;BME280;21134;49.646;8.560;2023-04-03T12:40:43;101528.09;;;12.65;38.20
34931;BME280;21134;49.646;8.560;2023-04-03T12:43:24;101517.63;;;12.38;40.65
34931;BME280;21134;49.646;8.560;2023-04-03T12:45:58;101522.06;;;12.55;40.12
34931;BME280;21134;49.646;8.560;2023-04-03T12:48:31;101501.59;;;12.69;37.33
34931;BME280;21134;49.646;8.560;2023-04-03T12:50:59;101515.81;;;12.23;38.95
34931;BME280;21134;49.646;8.560;2023-04-03T12:53:27;101511.25;;;11.96;39.19
34931;BME280;21134;49.646;8.560;2023-04-03T12:55:57;101510.06;;;11.66;39.58
34931;BME280;21134;49.646;8.560;2023-04-03T12:58:26;101508.56;;;11.12;40.03
34931;BME280;21134;49.646;8.560;2023-04-03T13:01:00;101516.38;;;11.23;40.42
34931;BME280;21134;49.646;8.560;2023-04-03T13:03:29;101514.34;;;10.96;40.83
34931;BME280;21134;49.646;8.560;2023-04-03T13:05:58;101507.66;;;10.47;41.73
34931;BME280;21134;49.646;8.560;2023-04-03T13:08:25;101510.00;;;10.35;42.04
34931;BME280;21134;49.646;8.560;2023-04-03T13:10:55;101511.25;;;10.10;41.96
34931;BME280;21134;49.646;8.560;2023-04-03T13:13:24;101509.28;;;9.95;40.65